createdAt,value
2023-04-15T00:01:00.666Z,6.90
2023-04-15T00:03:28.592Z,7.03
2023-04-15T00:05:56.335Z,6.80
2023-04-15T00:08:23.756Z,6.80
2023-04-15T00:10:50.989Z,7.10
2023-04-15T00:13:17.939Z,9.03
2023-04-15T00:15:44.945Z,16.57
2023-04-15T00:18:11.939Z,13.50
2023-04-15T00:20:38.986Z,17.67
2023-04-15T00:23:06.034Z,22.33
2023-04-15T00:25:33.157Z,17.80
2023-04-15T00:28:00.159Z,19.67
2023-04-15T00:30:27.242Z,14.83
2023-04-15T00:32:54.195Z,10.80
2023-04-15T00:35:24.047Z,8.97
2023-04-15T00:37:51.596Z,7.77
2023-04-15T00:40:20.957Z,7.50
2023-04-15T00:42:48.070Z,7.50
2023-04-15T00:45:15.683Z,7.07
2023-04-15T00:47:44.301Z,7.33
2023-04-15T00:50:12.703Z,6.83
2023-04-15T00:52:40.747Z,6.87
2023-04-15T00:55:08.884Z,7.17
2023-04-15T00:57:36.541Z,6.60
2023-04-15T01:00:05.710Z,6.40
2023-04-15T01:02:33.597Z,7.40
2023-04-15T01:05:04.170Z,7.80
2023-04-15T01:07:32.063Z,7.17
2023-04-15T01:09:59.270Z,7.33
2023-04-15T01:12:27.940Z,6.77
2023-04-15T01:14:56.258Z,6.93
2023-04-15T01:17:24.827Z,7.53
2023-04-15T01:19:52.830Z,7.13
2023-04-15T01:22:19.892Z,7.00
2023-04-15T01:25:00.045Z,6.93
2023-04-15T01:27:27.077Z,6.97
2023-04-15T01:29:54.118Z,8.37
2023-04-15T01:32:21.164Z,9.20
2023-04-15T01:34:48.175Z,8.03
2023-04-15T01:37:15.428Z,7.43
2023-04-15T01:39:44.700Z,7.23
2023-04-15T01:42:11.668Z,7.40
2023-04-15T01:44:38.590Z,7.83
2023-04-15T01:47:05.664Z,7.77
2023-04-15T01:49:32.734Z,8.43
2023-04-15T01:52:00.813Z,9.23
2023-04-15T01:54:27.956Z,8.50
2023-04-15T01:56:54.818Z,7.97
2023-04-15T01:59:21.823Z,8.37
2023-04-15T02:01:48.910Z,8.63
2023-04-15T02:04:18.683Z,7.60
2023-04-15T02:06:46.289Z,7.83
2023-04-15T02:09:14.734Z,9.50
2023-04-15T02:11:43.833Z,8.20
2023-04-15T02:14:10.854Z,10.37
2023-04-15T02:16:37.853Z,13.53
2023-04-15T02:19:04.865Z,9.87
2023-04-15T02:21:31.926Z,22.90
2023-04-15T02:23:58.877Z,16.13
2023-04-15T02:26:25.883Z,11.63
2023-04-15T02:28:55.443Z,8.60
2023-04-15T02:31:22.563Z,8.67
2023-04-15T02:33:49.590Z,9.33
2023-04-15T02:36:16.573Z,10.37
2023-04-15T02:38:44.126Z,9.30
2023-04-15T02:41:13.773Z,9.50
2023-04-15T02:43:40.950Z,13.00
2023-04-15T02:46:12.855Z,11.77
2023-04-15T02:48:39.925Z,12.40
2023-04-15T02:51:19.878Z,14.17
2023-04-15T02:53:48.497Z,11.53
2023-04-15T02:56:17.135Z,12.07
2023-04-15T02:58:45.557Z,12.97
2023-04-15T03:01:12.815Z,14.07
2023-04-15T03:03:41.066Z,10.80
2023-04-15T03:06:09.111Z,15.17
2023-04-15T03:08:36.497Z,17.10
2023-04-15T03:11:04.585Z,13.93
2023-04-15T03:13:33.103Z,16.57
2023-04-15T03:16:05.767Z,16.83
2023-04-15T03:18:33.109Z,12.63
2023-04-15T03:21:02.956Z,12.30
2023-04-15T03:23:32.724Z,11.80
2023-04-15T03:26:02.935Z,15.13
2023-04-15T03:28:32.652Z,13.50
2023-04-15T03:31:00.656Z,14.13
2023-04-15T03:33:27.864Z,16.73
2023-04-15T03:35:54.805Z,14.53
2023-04-15T03:38:21.658Z,29.13
2023-04-15T03:40:48.631Z,19.47
2023-04-15T03:43:15.687Z,12.17
2023-04-15T03:45:42.683Z,11.47
2023-04-15T03:48:17.201Z,11.10
2023-04-15T03:50:45.256Z,10.63
2023-04-15T03:53:12.269Z,11.90
2023-04-15T03:55:39.292Z,10.83
2023-04-15T03:58:06.534Z,10.87
2023-04-15T04:00:33.563Z,11.37
2023-04-15T04:03:00.756Z,11.57
2023-04-15T04:05:27.841Z,11.60
2023-04-15T04:07:54.810Z,11.67
2023-04-15T04:10:21.717Z,11.87
2023-04-15T04:12:48.723Z,11.20
2023-04-15T04:15:15.973Z,10.57
2023-04-15T04:17:42.977Z,12.07
2023-04-15T04:20:10.126Z,11.80
2023-04-15T04:22:40.745Z,11.50
2023-04-15T04:25:10.334Z,10.50
2023-04-15T04:27:37.441Z,11.70
2023-04-15T04:30:05.708Z,10.40
2023-04-15T04:32:32.840Z,10.57
2023-04-15T04:34:59.930Z,10.13
2023-04-15T04:37:27.285Z,10.83
2023-04-15T04:39:54.215Z,10.97
2023-04-15T04:42:21.237Z,11.43
2023-04-15T04:44:48.176Z,11.33
2023-04-15T04:47:15.087Z,11.47
2023-04-15T04:49:42.192Z,10.60
2023-04-15T04:52:09.134Z,12.37
2023-04-15T04:54:36.287Z,11.77
2023-04-15T04:57:03.257Z,10.77
2023-04-15T04:59:30.144Z,11.30
2023-04-15T05:01:57.199Z,10.77
2023-04-15T05:04:24.247Z,11.20
2023-04-15T05:06:51.766Z,10.60
2023-04-15T05:09:19.168Z,12.50
2023-04-15T05:11:46.248Z,11.10
2023-04-15T05:14:13.239Z,10.30
2023-04-15T05:16:40.232Z,9.90
2023-04-15T05:19:07.862Z,10.10
2023-04-15T05:21:34.762Z,10.80
2023-04-15T05:24:01.834Z,11.37
2023-04-15T05:26:29.023Z,12.10
2023-04-15T05:28:55.933Z,11.83
2023-04-15T05:31:22.904Z,9.80
2023-04-15T05:33:49.811Z,10.07
2023-04-15T05:36:16.701Z,11.33
2023-04-15T05:38:43.577Z,10.63
2023-04-15T05:41:10.521Z,11.10
2023-04-15T05:43:37.433Z,11.73
2023-04-15T05:46:04.519Z,11.90
2023-04-15T05:48:31.394Z,10.90
2023-04-15T05:50:58.675Z,11.00
2023-04-15T05:53:25.714Z,11.30
2023-04-15T05:55:52.604Z,11.27
2023-04-15T05:58:19.516Z,12.27
2023-04-15T06:00:46.498Z,14.33
2023-04-15T06:03:13.775Z,15.17
2023-04-15T06:05:40.799Z,14.53
2023-04-15T06:08:08.326Z,19.20
2023-04-15T06:10:36.762Z,12.97
2023-04-15T06:13:04.378Z,11.93
2023-04-15T06:15:31.749Z,12.80
2023-04-15T06:17:58.907Z,13.57
2023-04-15T06:20:26.235Z,13.37
2023-04-15T06:22:53.580Z,12.97
2023-04-15T06:25:20.544Z,11.90
2023-04-15T06:27:48.344Z,11.20
2023-04-15T06:30:15.270Z,12.07
2023-04-15T06:32:42.268Z,12.17
2023-04-15T06:35:09.600Z,10.73
2023-04-15T06:37:36.820Z,11.50
2023-04-15T06:40:05.193Z,11.63
2023-04-15T06:42:32.362Z,10.73
2023-04-15T06:44:59.216Z,10.67
2023-04-15T06:47:26.284Z,10.40
2023-04-15T06:49:53.213Z,10.37
2023-04-15T06:52:20.206Z,10.43
2023-04-15T06:54:47.162Z,11.00
2023-04-15T06:57:14.119Z,10.50
2023-04-15T06:59:41.203Z,9.50
2023-04-15T07:02:12.404Z,9.80
2023-04-15T07:04:40.281Z,10.30
2023-04-15T07:07:08.310Z,10.07
2023-04-15T07:09:35.366Z,11.63
2023-04-15T07:12:02.366Z,10.43
2023-04-15T07:14:29.546Z,10.00
2023-04-15T07:16:56.599Z,10.30
2023-04-15T07:19:23.648Z,10.10
2023-04-15T07:21:50.647Z,10.27
2023-04-15T07:24:18.960Z,10.33
2023-04-15T07:26:46.276Z,9.87
2023-04-15T07:29:13.331Z,9.77
2023-04-15T07:31:42.167Z,9.93
2023-04-15T07:34:09.141Z,10.38
2023-04-15T07:36:36.851Z,10.15
2023-04-15T07:39:04.370Z,11.10
2023-04-15T07:41:31.706Z,10.05
2023-04-15T07:43:59.016Z,9.43
2023-04-15T07:46:27.509Z,10.30
2023-04-15T07:48:54.620Z,10.32
2023-04-15T07:51:21.631Z,9.50
2023-04-15T07:53:50.471Z,10.77
2023-04-15T07:56:17.439Z,10.93
2023-04-15T07:58:44.395Z,10.05
2023-04-15T08:01:11.730Z,11.47
2023-04-15T08:03:39.525Z,10.83
2023-04-15T08:06:06.726Z,10.67
2023-04-15T08:08:33.684Z,9.35
2023-04-15T08:11:00.678Z,9.60
2023-04-15T08:13:27.965Z,8.95
2023-04-15T08:16:20.917Z,9.83
2023-04-15T08:18:49.040Z,10.60
2023-04-15T08:21:16.955Z,9.40
2023-04-15T08:23:45.010Z,9.67
2023-04-15T08:26:12.358Z,9.67
2023-04-15T08:28:40.790Z,10.23
2023-04-15T08:31:08.713Z,10.70
2023-04-15T08:33:35.937Z,10.73
2023-04-15T08:36:03.532Z,11.60
2023-04-15T08:38:30.717Z,11.53
2023-04-15T08:41:00.792Z,11.20
2023-04-15T08:43:35.252Z,11.80
2023-04-15T08:46:04.427Z,12.30
2023-04-15T08:48:35.095Z,11.80
2023-04-15T08:51:02.501Z,11.27
2023-04-15T08:53:30.760Z,11.70
2023-04-15T08:56:00.202Z,11.43
2023-04-15T08:58:27.383Z,10.67
2023-04-15T09:00:55.104Z,11.03
2023-04-15T09:03:23.744Z,10.57
2023-04-15T09:05:52.748Z,10.93
2023-04-15T09:08:20.384Z,10.57
2023-04-15T09:10:47.499Z,10.97
2023-04-15T09:13:14.507Z,10.20
2023-04-15T09:15:41.730Z,11.00
2023-04-15T09:18:11.540Z,11.10
2023-04-15T09:20:42.677Z,10.83
2023-04-15T09:23:17.566Z,10.20
2023-04-15T09:25:46.768Z,10.93
2023-04-15T09:28:13.658Z,8.93
2023-04-15T09:30:46.611Z,7.70
2023-04-15T09:33:15.214Z,8.57
2023-04-15T09:35:42.344Z,8.13
2023-04-15T09:38:10.782Z,9.17
2023-04-15T09:40:42.072Z,8.80
2023-04-15T09:43:13.009Z,8.43
2023-04-15T09:45:51.461Z,8.63
2023-04-15T09:48:25.404Z,8.47
2023-04-15T09:50:54.061Z,9.40
2023-04-15T09:53:22.524Z,9.90
2023-04-15T09:55:54.815Z,9.37
2023-04-15T09:58:26.628Z,8.77
2023-04-15T10:00:56.523Z,9.90
2023-04-15T10:03:32.076Z,9.80
2023-04-15T10:06:01.064Z,10.23
2023-04-15T10:08:31.546Z,9.83
2023-04-15T10:10:59.008Z,9.43
2023-04-15T10:13:28.944Z,9.30
2023-04-15T10:16:14.442Z,9.77
2023-04-15T10:18:47.258Z,8.43
2023-04-15T10:21:18.402Z,9.73
2023-04-15T10:23:48.787Z,9.07
2023-04-15T10:26:17.403Z,10.23
2023-04-15T10:28:45.162Z,9.70
2023-04-15T10:31:16.296Z,10.53
2023-04-15T10:33:44.512Z,10.40
2023-04-15T10:36:12.704Z,10.60
2023-04-15T10:38:45.654Z,9.50
2023-04-15T10:41:21.197Z,9.33
2023-04-15T10:43:52.838Z,9.00
2023-04-15T10:46:38.141Z,9.17
2023-04-15T10:49:13.996Z,8.90
2023-04-15T10:51:44.465Z,8.27
2023-04-15T10:54:32.507Z,7.93
2023-04-15T10:57:02.964Z,7.40
2023-04-15T10:59:59.988Z,7.30
2023-04-15T11:02:57.428Z,8.33
2023-04-15T11:05:51.826Z,8.33
2023-04-15T11:08:19.280Z,8.73
2023-04-15T11:10:46.300Z,9.27
2023-04-15T11:13:21.895Z,8.27
2023-04-15T11:15:49.781Z,9.70
2023-04-15T11:18:17.884Z,13.50
2023-04-15T11:20:48.923Z,13.47
2023-04-15T11:23:17.781Z,9.53
2023-04-15T11:25:45.178Z,10.50
2023-04-15T11:28:13.216Z,10.50
2023-04-15T11:30:41.017Z,8.77
2023-04-15T11:33:09.779Z,10.00
2023-04-15T11:35:37.131Z,9.50
2023-04-15T11:38:05.525Z,9.03
2023-04-15T11:40:35.881Z,8.43
2023-04-15T11:43:13.944Z,8.00
2023-04-15T11:46:01.535Z,8.40
2023-04-15T11:48:33.396Z,8.63
2023-04-15T11:51:02.704Z,7.83
2023-04-15T11:53:41.002Z,9.53
2023-04-15T11:56:10.284Z,9.70
2023-04-15T11:58:38.434Z,8.23
2023-04-15T12:01:06.824Z,7.87
2023-04-15T12:03:36.625Z,7.70
2023-04-15T12:06:23.556Z,8.20
2023-04-15T12:08:56.325Z,7.70
2023-04-15T12:11:35.447Z,8.27
2023-04-15T12:14:16.020Z,7.80
2023-04-15T12:16:49.953Z,7.97
2023-04-15T12:19:24.288Z,8.23
2023-04-15T12:21:52.235Z,6.87
2023-04-15T12:24:24.789Z,7.53
2023-04-15T12:26:54.095Z,6.77
2023-04-15T12:29:25.175Z,5.90
2023-04-15T12:31:57.741Z,5.60
2023-04-15T12:34:36.410Z,6.70
2023-04-15T12:37:06.329Z,11.67
2023-04-15T12:39:37.010Z,15.30
2023-04-15T12:42:06.224Z,7.47
2023-04-15T12:44:33.702Z,6.27
2023-04-15T12:47:01.336Z,5.00
2023-04-15T12:49:28.647Z,5.43
2023-04-15T12:52:03.043Z,5.63
2023-04-15T12:54:31.445Z,6.20
2023-04-15T12:56:59.332Z,5.57
2023-04-15T12:59:26.418Z,5.43
2023-04-15T13:01:54.140Z,5.10
2023-04-15T13:04:22.198Z,4.77
2023-04-15T13:06:49.537Z,5.20
2023-04-15T13:09:16.531Z,4.47
2023-04-15T13:11:43.660Z,5.50
2023-04-15T13:14:13.797Z,5.20
2023-04-15T13:16:41.354Z,4.73
2023-04-15T13:19:08.512Z,4.57
2023-04-15T13:21:36.413Z,4.47
2023-04-15T13:24:04.763Z,4.57
2023-04-15T13:26:32.234Z,4.23
2023-04-15T13:28:59.817Z,4.77
2023-04-15T13:31:27.316Z,4.50
2023-04-15T13:33:54.413Z,4.80
2023-04-15T13:36:21.592Z,4.63
2023-04-15T13:38:50.950Z,6.10
2023-04-15T13:41:18.790Z,5.07
2023-04-15T13:43:46.316Z,4.13
2023-04-15T13:46:13.265Z,4.40
2023-04-15T13:48:40.236Z,4.87
2023-04-15T13:51:07.139Z,4.20
2023-04-15T13:53:38.785Z,4.20
2023-04-15T13:56:10.115Z,8.50
2023-04-15T13:58:38.133Z,5.43
2023-04-15T14:01:06.948Z,6.17
2023-04-15T14:03:38.372Z,6.87
2023-04-15T14:06:06.172Z,4.70
2023-04-15T14:08:33.796Z,5.30
2023-04-15T14:11:01.145Z,9.27
2023-04-15T14:13:28.268Z,9.20
2023-04-15T14:15:55.428Z,6.97
2023-04-15T14:18:22.402Z,5.00
2023-04-15T14:20:49.486Z,4.63
2023-04-15T14:23:16.671Z,5.53
2023-04-15T14:25:45.013Z,5.60
2023-04-15T14:28:13.048Z,6.70
2023-04-15T14:30:39.999Z,5.37
2023-04-15T14:33:06.953Z,5.47
2023-04-15T14:35:33.913Z,5.90
2023-04-15T14:38:00.879Z,5.70
2023-04-15T14:40:27.897Z,6.00
2023-04-15T14:42:54.862Z,5.50
2023-04-15T14:45:21.823Z,6.50
2023-04-15T14:47:48.862Z,5.90
2023-04-15T14:50:16.076Z,6.43
2023-04-15T14:52:43.092Z,7.50
2023-04-15T14:55:12.021Z,7.03
2023-04-15T14:57:40.091Z,7.27
2023-04-15T15:00:07.994Z,6.17
2023-04-15T15:02:39.794Z,6.90
2023-04-15T15:05:08.585Z,7.60
2023-04-15T15:07:37.194Z,7.57
2023-04-15T15:10:05.073Z,8.50
2023-04-15T15:12:33.495Z,8.60
2023-04-15T15:15:02.926Z,6.87
2023-04-15T15:17:31.979Z,7.50
2023-04-15T15:19:58.967Z,7.13
2023-04-15T15:22:26.241Z,7.90
2023-04-15T15:24:53.605Z,7.23
2023-04-15T15:27:20.977Z,7.13
2023-04-15T15:29:48.971Z,6.87
2023-04-15T15:32:16.084Z,6.97
2023-04-15T15:34:43.010Z,7.00
2023-04-15T15:37:09.968Z,7.23
2023-04-15T15:39:36.957Z,5.60
2023-04-15T15:42:04.154Z,6.37
2023-04-15T15:44:32.469Z,7.10
2023-04-15T15:47:00.772Z,5.80
2023-04-15T15:49:28.445Z,5.93
2023-04-15T15:51:56.374Z,5.20
2023-04-15T15:54:24.266Z,5.60
2023-04-15T15:56:51.397Z,6.33
2023-04-15T15:59:18.395Z,5.30
2023-04-15T16:01:45.572Z,5.00
2023-04-15T16:04:12.931Z,6.47
2023-04-15T16:06:40.746Z,7.80
2023-04-15T16:09:07.715Z,6.80
2023-04-15T16:11:34.832Z,6.87
2023-04-15T16:14:01.918Z,7.50
2023-04-15T16:16:30.010Z,7.63
2023-04-15T16:19:00.242Z,6.67
2023-04-15T16:21:27.433Z,6.27
2023-04-15T16:23:54.574Z,6.27
2023-04-15T16:26:21.843Z,6.60
2023-04-15T16:28:48.819Z,5.93
2023-04-15T16:31:15.813Z,6.33
2023-04-15T16:33:42.713Z,6.00
2023-04-15T16:36:09.634Z,6.30
2023-04-15T16:38:36.601Z,6.53
2023-04-15T16:41:03.625Z,7.77
2023-04-15T16:43:30.720Z,11.50
2023-04-15T16:45:57.684Z,10.30
2023-04-15T16:48:24.747Z,7.23
2023-04-15T16:50:51.692Z,8.43
2023-04-15T16:53:18.880Z,8.10
2023-04-15T16:55:46.030Z,8.37
2023-04-15T16:58:12.938Z,8.70
2023-04-15T17:00:39.865Z,8.50
2023-04-15T17:03:07.006Z,7.73
2023-04-15T17:05:34.079Z,8.50
2023-04-15T17:08:01.062Z,8.63
2023-04-15T17:10:28.278Z,8.43
2023-04-15T17:12:59.038Z,8.77
2023-04-15T17:15:27.648Z,10.27
2023-04-15T17:17:54.833Z,9.57
2023-04-15T17:20:21.896Z,10.40
2023-04-15T17:22:49.199Z,10.27
2023-04-15T17:25:16.339Z,11.10
2023-04-15T17:27:43.753Z,10.93
2023-04-15T17:30:11.112Z,11.43
2023-04-15T17:32:39.405Z,13.20
2023-04-15T17:35:07.159Z,11.23
2023-04-15T17:37:34.511Z,12.60
2023-04-15T17:40:01.750Z,10.97
2023-04-15T17:42:28.709Z,11.80
2023-04-15T17:44:55.616Z,10.87
2023-04-15T17:47:22.644Z,12.77
2023-04-15T17:49:49.597Z,11.10
2023-04-15T17:52:16.858Z,11.43
2023-04-15T17:54:43.842Z,13.03
2023-04-15T17:57:10.830Z,12.17
2023-04-15T17:59:37.904Z,13.03
2023-04-15T18:02:04.908Z,14.53
2023-04-15T18:04:31.987Z,11.57
2023-04-15T18:06:59.212Z,13.57
2023-04-15T18:09:27.032Z,18.37
2023-04-15T18:11:53.985Z,12.37
2023-04-15T18:14:33.419Z,12.93
2023-04-15T18:17:01.536Z,14.37
2023-04-15T18:19:29.377Z,12.80
2023-04-15T18:21:56.335Z,14.27
2023-04-15T18:24:23.245Z,13.83
2023-04-15T18:26:50.382Z,13.77
2023-04-15T18:29:18.548Z,14.80
2023-04-15T18:31:45.594Z,14.37
2023-04-15T18:34:13.015Z,14.60
2023-04-15T18:36:40.084Z,14.73
2023-04-15T18:39:07.299Z,12.93
2023-04-15T18:41:34.510Z,17.07
2023-04-15T18:44:01.669Z,12.20
2023-04-15T18:46:28.986Z,12.37
2023-04-15T18:48:55.868Z,13.17
2023-04-15T18:51:22.820Z,12.40
2023-04-15T18:53:49.672Z,13.50
2023-04-15T18:56:17.597Z,12.87
2023-04-15T18:59:18.221Z,13.40
2023-04-15T19:01:32.077Z,13.20
2023-04-15T19:03:59.640Z,12.60
2023-04-15T19:06:27.290Z,14.40
2023-04-15T19:08:54.985Z,14.33
2023-04-15T19:11:22.008Z,12.87
2023-04-15T19:13:49.122Z,14.60
2023-04-15T19:16:16.100Z,14.77
2023-04-15T19:18:43.282Z,15.30
2023-04-15T19:21:14.968Z,14.37
2023-04-15T19:23:43.061Z,15.20
2023-04-15T19:26:11.828Z,15.27
2023-04-15T19:28:39.227Z,14.73
2023-04-15T19:31:06.730Z,15.70
2023-04-15T19:33:34.148Z,15.70
2023-04-15T19:36:02.729Z,16.37
2023-04-15T19:38:30.599Z,16.73
2023-04-15T19:40:58.493Z,16.87
2023-04-15T19:43:26.338Z,16.93
2023-04-15T19:45:54.763Z,18.07
2023-04-15T19:48:23.110Z,17.83
2023-04-15T19:50:50.318Z,18.07
2023-04-15T19:53:17.381Z,24.83
2023-04-15T19:55:44.462Z,24.10
2023-04-15T19:58:11.632Z,27.53
2023-04-15T20:00:38.752Z,19.27
2023-04-15T20:03:06.116Z,19.93
2023-04-15T20:05:33.236Z,19.30
2023-04-15T20:08:01.669Z,19.07
2023-04-15T20:10:29.730Z,20.27
2023-04-15T20:12:56.614Z,19.67
2023-04-15T20:15:24.890Z,19.93
2023-04-15T20:17:51.999Z,20.37
2023-04-15T20:20:19.249Z,19.57
2023-04-15T20:22:46.286Z,20.47
2023-04-15T20:25:13.548Z,20.03
2023-04-15T20:27:40.695Z,20.73
2023-04-15T20:30:08.281Z,21.13
2023-04-15T20:32:35.884Z,20.37
2023-04-15T20:35:04.537Z,21.33
2023-04-15T20:37:33.535Z,21.63
2023-04-15T20:40:01.880Z,22.53
2023-04-15T20:42:33.364Z,21.43
2023-04-15T20:45:00.496Z,21.70
2023-04-15T20:47:27.644Z,22.57
2023-04-15T20:49:54.784Z,25.07
2023-04-15T20:52:21.910Z,23.10
2023-04-15T20:54:48.841Z,23.17
2023-04-15T20:57:16.362Z,23.07
2023-04-15T20:59:43.562Z,23.17
2023-04-15T21:02:10.694Z,23.73
2023-04-15T21:04:38.414Z,24.50
2023-04-15T21:07:05.667Z,24.20
2023-04-15T21:09:32.693Z,23.77
2023-04-15T21:12:01.542Z,24.97
2023-04-15T21:14:29.839Z,24.87
2023-04-15T21:16:58.355Z,25.20
2023-04-15T21:19:25.458Z,23.77
2023-04-15T21:21:52.729Z,25.17
2023-04-15T21:24:19.775Z,24.23
2023-04-15T21:26:46.694Z,24.00
2023-04-15T21:29:13.785Z,24.63
2023-04-15T21:31:41.069Z,24.97
2023-04-15T21:34:08.372Z,25.83
2023-04-15T21:36:35.487Z,26.07
2023-04-15T21:39:02.646Z,25.47
2023-04-15T21:41:30.029Z,26.27
2023-04-15T21:43:57.214Z,26.50
2023-04-15T21:46:25.656Z,25.63
2023-04-15T21:49:00.037Z,25.60
2023-04-15T21:51:27.775Z,26.10
2023-04-15T21:53:54.808Z,25.30
2023-04-15T21:56:24.390Z,25.60
2023-04-15T21:58:54.271Z,26.90
2023-04-15T22:01:21.406Z,26.43
2023-04-15T22:03:48.737Z,25.43
2023-04-15T22:06:15.956Z,25.20
2023-04-15T22:08:55.417Z,24.87
2023-04-15T22:11:27.468Z,24.80
2023-04-15T22:13:55.685Z,25.67
2023-04-15T22:16:22.902Z,26.47
2023-04-15T22:18:49.937Z,26.20
2023-04-15T22:21:16.962Z,26.30
2023-04-15T22:23:47.729Z,25.23
2023-04-15T22:26:14.833Z,26.73
2023-04-15T22:28:41.944Z,27.70
2023-04-15T22:31:09.265Z,25.97
2023-04-15T22:33:36.531Z,27.07
2023-04-15T22:36:03.679Z,26.03
2023-04-15T22:38:30.866Z,26.20
2023-04-15T22:40:58.496Z,27.13
2023-04-15T22:43:27.573Z,26.57
2023-04-15T22:45:55.092Z,26.63
2023-04-15T22:48:22.800Z,26.57
2023-04-15T22:50:50.039Z,27.43
2023-04-15T22:53:17.823Z,28.77
2023-04-15T22:55:48.562Z,29.00
2023-04-15T22:58:17.079Z,28.63
2023-04-15T23:00:44.509Z,27.57
2023-04-15T23:03:11.614Z,26.73
2023-04-15T23:05:40.170Z,29.43
2023-04-15T23:08:07.709Z,27.10
2023-04-15T23:10:34.808Z,28.77
2023-04-15T23:13:01.945Z,28.23
2023-04-15T23:15:28.912Z,27.87
2023-04-15T23:17:55.915Z,29.20
2023-04-15T23:20:22.798Z,28.93
2023-04-15T23:22:49.854Z,29.70
2023-04-15T23:25:16.896Z,29.93
2023-04-15T23:27:43.749Z,29.70
2023-04-15T23:30:11.013Z,30.23
2023-04-15T23:32:37.977Z,31.10
2023-04-15T23:35:05.386Z,30.37
2023-04-15T23:37:32.410Z,30.97
2023-04-15T23:39:59.363Z,31.13
2023-04-15T23:42:26.345Z,29.63
2023-04-15T23:44:53.337Z,29.43
2023-04-15T23:47:21.024Z,30.30
2023-04-15T23:49:48.201Z,29.03
2023-04-15T23:52:15.456Z,31.27
2023-04-15T23:54:42.363Z,30.90
2023-04-15T23:57:09.426Z,31.60
2023-04-15T23:59:36.354Z,31.73
